createdAt,value
2017-09-22T00:00:22.054Z,10.05
2017-09-22T00:02:49.966Z,10.10
2017-09-22T00:05:17.728Z,10.35
2017-09-22T00:07:46.181Z,12.20
2017-09-22T00:10:13.928Z,10.90
2017-09-22T00:12:42.518Z,10.20
2017-09-22T00:15:10.181Z,10.05
2017-09-22T00:17:37.776Z,11.98
2017-09-22T00:20:06.145Z,11.32
2017-09-22T00:22:33.793Z,13.15
2017-09-22T00:25:01.516Z,11.63
2017-09-22T00:27:29.342Z,13.43
2017-09-22T00:29:57.199Z,13.35
2017-09-22T00:32:24.925Z,11.45
2017-09-22T00:34:53.435Z,12.27
2017-09-22T00:37:21.144Z,12.57
2017-09-22T00:39:48.820Z,11.15
2017-09-22T00:42:16.610Z,11.40
2017-09-22T00:44:44.265Z,13.00
2017-09-22T00:47:12.773Z,11.52
2017-09-22T00:49:40.389Z,13.02
2017-09-22T00:52:08.950Z,10.80
2017-09-22T00:54:36.630Z,12.48
2017-09-22T00:57:05.037Z,13.30
2017-09-22T00:59:33.581Z,12.90
2017-09-22T01:02:01.287Z,14.40
2017-09-22T01:04:28.957Z,15.27
2017-09-22T01:06:56.853Z,13.60
2017-09-22T01:09:24.514Z,13.38
2017-09-22T01:11:52.293Z,14.23
2017-09-22T01:14:19.957Z,12.70
2017-09-22T01:16:47.791Z,14.50
2017-09-22T01:19:16.440Z,15.02
2017-09-22T01:21:44.062Z,13.02
2017-09-22T01:24:11.826Z,13.60
2017-09-22T01:26:39.661Z,13.70
2017-09-22T01:29:08.107Z,14.48
2017-09-22T01:31:36.800Z,12.75
2017-09-22T01:34:04.731Z,14.63
2017-09-22T01:36:32.557Z,12.75
2017-09-22T01:39:01.129Z,14.40
2017-09-22T01:41:28.793Z,15.38
2017-09-22T01:43:56.621Z,13.73
2017-09-22T01:46:25.044Z,11.80
2017-09-22T01:48:52.680Z,14.60
2017-09-22T01:51:20.596Z,13.65
2017-09-22T01:53:49.098Z,12.57
2017-09-22T01:56:16.856Z,13.98
2017-09-22T01:58:44.511Z,12.60
2017-09-22T02:01:12.254Z,14.25
2017-09-22T02:03:40.744Z,12.93
2017-09-22T02:06:09.183Z,12.73
2017-09-22T02:08:36.877Z,13.60
2017-09-22T02:11:04.650Z,14.48
2017-09-22T02:13:32.325Z,13.52
2017-09-22T02:16:00.934Z,13.65
2017-09-22T02:18:28.580Z,13.70
2017-09-22T02:20:57.163Z,14.68
2017-09-22T02:23:24.929Z,12.37
2017-09-22T02:25:52.588Z,13.95
2017-09-22T02:28:21.210Z,13.90
2017-09-22T02:30:48.895Z,12.35
2017-09-22T02:33:16.658Z,13.25
2017-09-22T02:35:44.493Z,14.40
2017-09-22T02:38:12.146Z,13.85
2017-09-22T02:40:40.593Z,14.27
2017-09-22T02:43:08.409Z,13.82
2017-09-22T02:45:36.204Z,14.60
2017-09-22T02:48:03.863Z,14.45
2017-09-22T02:50:31.758Z,15.70
2017-09-22T02:52:59.549Z,15.40
2017-09-22T02:55:28.043Z,16.80
2017-09-22T02:57:55.789Z,16.85
2017-09-22T03:00:24.271Z,15.80
2017-09-22T03:02:52.873Z,15.02
2017-09-22T03:05:20.534Z,14.90
2017-09-22T03:07:48.272Z,16.40
2017-09-22T03:10:15.907Z,18.45
2017-09-22T03:12:43.621Z,18.48
2017-09-22T03:15:11.292Z,16.58
2017-09-22T03:17:39.129Z,18.52
2017-09-22T03:20:06.803Z,16.85
2017-09-22T03:22:35.255Z,16.90
2017-09-22T03:25:03.099Z,19.08
2017-09-22T03:27:30.734Z,18.33
2017-09-22T03:29:58.658Z,19.27
2017-09-22T03:32:26.295Z,18.12
2017-09-22T03:34:54.035Z,18.37
2017-09-22T03:37:21.735Z,19.37
2017-09-22T03:39:49.430Z,16.67
2017-09-22T03:42:17.109Z,16.60
2017-09-22T03:44:45.525Z,16.48
2017-09-22T03:47:13.261Z,17.52
2017-09-22T03:49:40.917Z,16.80
2017-09-22T03:52:09.436Z,19.70
2017-09-22T03:54:37.277Z,16.65
2017-09-22T03:57:05.682Z,19.17
2017-09-22T03:59:33.530Z,17.65
2017-09-22T04:02:01.163Z,18.30
2017-09-22T04:04:28.851Z,18.80
2017-09-22T04:06:57.314Z,19.73
2017-09-22T04:09:25.126Z,17.05
2017-09-22T04:11:52.876Z,18.60
2017-09-22T04:14:20.515Z,18.42
2017-09-22T04:16:48.915Z,20.75
2017-09-22T04:19:16.651Z,19.92
2017-09-22T04:21:44.516Z,20.33
2017-09-22T04:24:12.382Z,19.27
2017-09-22T04:26:40.064Z,20.65
2017-09-22T04:29:08.690Z,19.30
2017-09-22T04:31:36.555Z,19.80
2017-09-22T04:34:04.730Z,18.83
2017-09-22T04:36:32.506Z,19.42
2017-09-22T04:39:00.170Z,19.55
2017-09-22T04:41:27.848Z,17.65
2017-09-22T04:43:55.746Z,19.20
2017-09-22T04:46:23.497Z,17.50
2017-09-22T04:48:52.016Z,19.45
2017-09-22T04:51:20.419Z,16.87
2017-09-22T04:53:48.130Z,16.85
2017-09-22T04:56:16.777Z,17.70
2017-09-22T04:58:44.598Z,18.85
2017-09-22T05:01:13.009Z,18.40
2017-09-22T05:03:40.652Z,16.85
2017-09-22T05:06:09.234Z,17.33
2017-09-22T05:08:37.716Z,18.90
2017-09-22T05:11:05.441Z,18.45
2017-09-22T05:13:33.244Z,19.85
2017-09-22T05:16:01.731Z,18.58
2017-09-22T05:18:30.127Z,22.65
2017-09-22T05:20:57.792Z,22.15
2017-09-22T05:23:25.502Z,22.50
2017-09-22T05:25:53.304Z,20.17
2017-09-22T05:28:21.862Z,20.45
2017-09-22T05:30:49.689Z,18.00
2017-09-22T05:33:17.335Z,19.33
2017-09-22T05:35:45.065Z,20.98
2017-09-22T05:38:12.720Z,20.62
2017-09-22T05:40:40.511Z,20.42
2017-09-22T05:43:09.141Z,22.77
2017-09-22T05:45:36.797Z,20.17
2017-09-22T05:48:04.507Z,22.42
2017-09-22T05:50:32.297Z,19.42
2017-09-22T05:53:00.774Z,21.25
2017-09-22T05:55:28.537Z,18.60
2017-09-22T05:57:56.947Z,20.17
2017-09-22T06:00:25.036Z,19.80
2017-09-22T06:02:53.104Z,17.87
2017-09-22T06:05:20.864Z,19.27
2017-09-22T06:07:48.840Z,18.67
2017-09-22T06:10:16.503Z,19.02
2017-09-22T06:12:44.698Z,19.55
2017-09-22T06:15:12.526Z,20.45
2017-09-22T06:17:40.171Z,18.67
2017-09-22T06:20:08.654Z,17.00
2017-09-22T06:22:37.064Z,18.40
2017-09-22T06:25:05.503Z,16.67
2017-09-22T06:27:34.007Z,15.65
2017-09-22T06:30:01.760Z,17.55
2017-09-22T06:32:30.159Z,16.12
2017-09-22T06:34:58.758Z,16.40
2017-09-22T06:37:26.507Z,15.63
2017-09-22T06:39:54.141Z,16.37
2017-09-22T06:42:21.834Z,16.98
2017-09-22T06:44:49.776Z,16.83
2017-09-22T06:47:17.695Z,17.70
2017-09-22T06:49:45.370Z,16.67
2017-09-22T06:52:12.914Z,18.23
2017-09-22T06:54:40.523Z,18.27
2017-09-22T06:57:08.199Z,18.15
2017-09-22T06:59:35.981Z,15.70
2017-09-22T07:02:03.759Z,15.50
2017-09-22T07:04:31.402Z,17.90
2017-09-22T07:06:59.079Z,16.37
2017-09-22T07:09:27.610Z,14.27
2017-09-22T07:11:55.385Z,15.03
2017-09-22T07:14:23.153Z,15.03
2017-09-22T07:16:51.058Z,17.00
2017-09-22T07:19:19.457Z,14.10
2017-09-22T07:21:47.153Z,16.83
2017-09-22T07:24:14.815Z,13.53
2017-09-22T07:26:42.483Z,14.77
2017-09-22T07:29:10.204Z,15.80
2017-09-22T07:31:37.864Z,13.87
2017-09-22T07:34:06.291Z,15.30
2017-09-22T07:36:34.197Z,13.83
2017-09-22T07:39:01.897Z,15.70
2017-09-22T07:41:29.735Z,14.20
2017-09-22T07:43:58.701Z,13.33
2017-09-22T07:46:26.505Z,16.03
2017-09-22T07:48:55.225Z,15.30
2017-09-22T07:51:23.278Z,15.80
2017-09-22T07:53:50.882Z,13.43
2017-09-22T07:56:18.535Z,14.80
2017-09-22T07:58:46.113Z,15.17
2017-09-22T08:01:14.619Z,15.00
2017-09-22T08:03:42.966Z,14.00
2017-09-22T08:06:10.556Z,15.20
2017-09-22T08:08:38.923Z,13.53
2017-09-22T08:11:07.352Z,14.30
2017-09-22T08:13:34.947Z,14.17
2017-09-22T08:16:02.572Z,13.50
2017-09-22T08:18:30.331Z,12.90
2017-09-22T08:20:58.727Z,14.23
2017-09-22T08:23:26.315Z,13.60
2017-09-22T08:25:54.152Z,12.70
2017-09-22T08:28:21.934Z,12.60
2017-09-22T08:30:49.779Z,14.30
2017-09-22T08:33:18.212Z,13.60
2017-09-22T08:35:45.924Z,14.00
2017-09-22T08:38:13.667Z,12.90
2017-09-22T08:40:41.415Z,13.03
2017-09-22T08:43:09.557Z,13.37
2017-09-22T08:45:37.227Z,13.37
2017-09-22T08:48:04.850Z,13.77
2017-09-22T08:50:32.718Z,14.33
2017-09-22T08:53:01.178Z,12.70
2017-09-22T08:55:28.890Z,13.77
2017-09-22T08:57:56.571Z,13.67
2017-09-22T09:00:24.206Z,13.20
2017-09-22T09:02:51.892Z,13.60
2017-09-22T09:05:19.630Z,14.10
2017-09-22T09:07:48.174Z,13.40
2017-09-22T09:10:15.828Z,14.53
2017-09-22T09:12:43.669Z,14.57
2017-09-22T09:15:12.362Z,13.80
2017-09-22T09:17:40.018Z,14.70
2017-09-22T09:20:07.679Z,15.10
2017-09-22T09:22:35.410Z,14.80
2017-09-22T09:25:03.072Z,13.03
2017-09-22T09:27:30.714Z,13.03
2017-09-22T09:29:58.409Z,15.17
2017-09-22T09:32:26.898Z,13.67
2017-09-22T09:34:55.312Z,14.23
2017-09-22T09:37:23.146Z,13.57
2017-09-22T09:39:51.689Z,13.60
2017-09-22T09:42:19.337Z,14.50
2017-09-22T09:44:47.076Z,13.67
2017-09-22T09:47:14.708Z,13.73
2017-09-22T09:49:42.552Z,12.80
2017-09-22T09:52:10.250Z,13.20
2017-09-22T09:54:38.577Z,14.47
2017-09-22T09:57:06.162Z,13.10
2017-09-22T09:59:33.743Z,14.47
2017-09-22T10:02:01.318Z,13.97
2017-09-22T10:04:29.666Z,12.40
2017-09-22T10:06:57.239Z,13.13
2017-09-22T10:09:25.791Z,13.77
2017-09-22T10:11:53.370Z,13.70
2017-09-22T10:14:21.063Z,13.77
2017-09-22T10:16:49.558Z,12.50
2017-09-22T10:19:17.893Z,13.10
2017-09-22T10:21:45.635Z,11.80
2017-09-22T10:24:13.187Z,12.63
2017-09-22T10:26:40.744Z,11.80
2017-09-22T10:29:08.334Z,13.20
2017-09-22T10:31:35.920Z,12.30
2017-09-22T10:34:04.293Z,21.30
2017-09-22T10:36:31.863Z,12.33
2017-09-22T10:38:59.447Z,11.33
2017-09-22T10:41:27.070Z,12.00
2017-09-22T10:43:55.398Z,12.57
2017-09-22T10:46:22.983Z,12.33
2017-09-22T10:48:50.554Z,12.73
2017-09-22T10:51:18.897Z,12.63
2017-09-22T10:53:46.501Z,11.07
2017-09-22T10:56:16.302Z,11.93
2017-09-22T10:58:45.017Z,11.47
2017-09-22T11:01:13.339Z,10.33
2017-09-22T11:03:40.903Z,12.07
2017-09-22T11:06:08.472Z,10.13
2017-09-22T11:08:36.055Z,11.13
2017-09-22T11:11:03.622Z,10.60
2017-09-22T11:13:31.234Z,10.77
2017-09-22T11:15:58.822Z,10.57
2017-09-22T11:18:26.392Z,10.60
2017-09-22T11:20:54.000Z,10.40
2017-09-22T11:23:21.618Z,11.57
2017-09-22T11:25:49.211Z,8.40
2017-09-22T11:28:16.774Z,9.60
2017-09-22T11:30:44.430Z,8.47
2017-09-22T11:33:11.977Z,8.37
2017-09-22T11:35:39.610Z,10.20
2017-09-22T11:38:07.181Z,9.63
2017-09-22T11:40:34.766Z,9.37
2017-09-22T11:43:02.353Z,8.80
2017-09-22T11:45:29.908Z,8.93
2017-09-22T11:47:57.484Z,8.23
2017-09-22T11:50:25.822Z,7.50
2017-09-22T11:52:53.419Z,8.17
2017-09-22T11:55:21.739Z,8.23
2017-09-22T11:57:49.312Z,8.10
2017-09-22T12:00:16.888Z,8.50
2017-09-22T12:02:44.455Z,8.17
2017-09-22T12:05:12.045Z,7.70
2017-09-22T12:07:39.610Z,7.63
2017-09-22T12:10:07.237Z,7.43
2017-09-22T12:12:34.824Z,8.90
2017-09-22T12:15:02.415Z,6.67
2017-09-22T12:17:30.774Z,6.90
2017-09-22T12:19:58.325Z,7.53
2017-09-22T12:22:25.882Z,7.03
2017-09-22T12:24:53.442Z,8.77
2017-09-22T12:27:21.023Z,7.70
2017-09-22T12:29:48.616Z,7.33
2017-09-22T12:32:16.963Z,7.00
2017-09-22T12:34:44.724Z,7.30
2017-09-22T12:37:12.273Z,6.93
2017-09-22T12:39:39.970Z,5.50
2017-09-22T12:42:07.864Z,6.13
2017-09-22T12:44:35.552Z,6.70
2017-09-22T12:47:04.114Z,6.87
2017-09-22T12:49:31.723Z,6.47
2017-09-22T12:51:59.290Z,6.13
2017-09-22T12:54:27.038Z,5.70
2017-09-22T12:56:54.739Z,6.00
2017-09-22T12:59:23.191Z,5.83
2017-09-22T13:01:50.760Z,5.40
2017-09-22T13:04:18.638Z,5.67
2017-09-22T13:06:46.500Z,5.90
2017-09-22T13:09:14.066Z,5.67
2017-09-22T13:11:42.220Z,5.50
2017-09-22T13:14:10.782Z,6.40
2017-09-22T13:16:38.392Z,5.33
2017-09-22T13:19:06.166Z,6.00
2017-09-22T13:21:33.918Z,6.90
2017-09-22T13:24:01.648Z,5.73
2017-09-22T13:26:29.283Z,5.83
2017-09-22T13:28:57.739Z,7.47
2017-09-22T13:31:25.405Z,6.60
2017-09-22T13:33:53.146Z,7.17
2017-09-22T13:36:20.735Z,6.53
2017-09-22T13:38:48.472Z,6.30
2017-09-22T13:41:16.083Z,6.13
2017-09-22T13:43:43.659Z,6.63
2017-09-22T13:46:11.255Z,7.53
2017-09-22T13:48:38.985Z,7.47
2017-09-22T13:51:07.355Z,7.10
2017-09-22T13:53:35.836Z,6.87
2017-09-22T13:56:03.531Z,6.67
2017-09-22T13:58:31.556Z,8.13
2017-09-22T14:00:59.135Z,7.80
2017-09-22T14:03:26.720Z,8.60
2017-09-22T14:05:55.053Z,7.97
2017-09-22T14:08:22.693Z,9.07
2017-09-22T14:10:50.314Z,9.90
2017-09-22T14:13:17.912Z,8.50
2017-09-22T14:15:45.556Z,8.43
2017-09-22T14:18:13.914Z,9.27
2017-09-22T14:20:41.480Z,8.10
2017-09-22T14:23:09.283Z,8.40
2017-09-22T14:25:36.887Z,8.17
2017-09-22T14:28:04.470Z,6.87
2017-09-22T14:30:32.083Z,8.97
2017-09-22T14:32:59.761Z,9.73
2017-09-22T14:35:27.406Z,7.53
2017-09-22T14:37:54.999Z,8.90
2017-09-22T14:40:22.600Z,8.73
2017-09-22T14:42:50.932Z,7.50
2017-09-22T14:45:18.554Z,6.70
2017-09-22T14:47:46.891Z,5.87
2017-09-22T14:50:14.457Z,6.63
2017-09-22T14:52:42.059Z,5.93
2017-09-22T14:55:10.598Z,5.90
2017-09-22T14:57:38.182Z,6.73
2017-09-22T15:00:05.767Z,5.60
2017-09-22T15:02:34.100Z,5.60
2017-09-22T15:05:01.695Z,4.50
2017-09-22T15:07:29.275Z,6.70
2017-09-22T15:09:56.934Z,5.77
2017-09-22T15:12:25.274Z,5.33
2017-09-22T15:14:52.838Z,5.57
2017-09-22T15:17:20.409Z,7.03
2017-09-22T15:19:48.007Z,6.63
2017-09-22T15:22:16.344Z,5.43
2017-09-22T15:24:44.498Z,6.03
2017-09-22T15:27:12.162Z,4.37
2017-09-22T15:29:39.718Z,4.90
2017-09-22T15:32:07.282Z,4.97
2017-09-22T15:34:35.903Z,5.50
2017-09-22T15:37:03.472Z,4.40
2017-09-22T15:39:31.039Z,5.90
2017-09-22T15:41:58.622Z,5.73
2017-09-22T15:44:26.187Z,5.10
2017-09-22T15:46:54.561Z,7.90
2017-09-22T15:49:23.018Z,6.50
2017-09-22T15:51:50.580Z,5.90
2017-09-22T15:54:18.157Z,5.80
2017-09-22T15:56:45.719Z,4.93
2017-09-22T15:59:14.114Z,5.17
2017-09-22T16:01:41.725Z,5.30
2017-09-22T16:04:09.327Z,4.77
2017-09-22T16:06:36.905Z,4.97
2017-09-22T16:09:04.488Z,5.47
2017-09-22T16:11:32.064Z,5.50
2017-09-22T16:14:00.509Z,4.87
2017-09-22T16:16:28.077Z,5.50
2017-09-22T16:18:55.665Z,5.67
2017-09-22T16:21:23.229Z,5.80
2017-09-22T16:23:51.590Z,5.30
2017-09-22T16:26:19.154Z,5.20
2017-09-22T16:28:46.784Z,5.90
2017-09-22T16:31:14.384Z,4.83
2017-09-22T16:33:42.041Z,6.00
2017-09-22T16:36:32.570Z,5.07
2017-09-22T16:39:01.653Z,5.80
2017-09-22T16:41:29.245Z,7.20
2017-09-22T16:43:56.823Z,6.57
2017-09-22T16:46:24.419Z,7.80
2017-09-22T16:48:52.779Z,11.07
2017-09-22T16:51:20.366Z,11.50
2017-09-22T16:54:00.658Z,10.00
2017-09-22T16:56:28.310Z,11.47
2017-09-22T16:58:55.947Z,11.07
2017-09-22T17:01:24.347Z,11.70
2017-09-22T17:03:51.930Z,11.77
2017-09-22T17:06:19.543Z,12.73
2017-09-22T17:08:47.115Z,13.20
2017-09-22T17:11:14.943Z,12.73
2017-09-22T17:13:44.421Z,14.20
2017-09-22T17:16:11.990Z,13.23
2017-09-22T17:18:39.594Z,12.40
2017-09-22T17:21:07.941Z,12.70
2017-09-22T17:23:35.548Z,13.03
2017-09-22T17:26:03.922Z,13.77
2017-09-22T17:28:31.538Z,13.10
2017-09-22T17:30:59.104Z,16.23
2017-09-22T17:33:26.698Z,14.00
2017-09-22T17:35:54.298Z,14.50
2017-09-22T17:38:22.655Z,11.60
2017-09-22T17:40:50.437Z,12.80
2017-09-22T17:43:18.800Z,12.10
2017-09-22T17:45:46.399Z,12.13
2017-09-22T17:48:14.128Z,11.47
2017-09-22T17:50:41.727Z,11.50
2017-09-22T17:53:10.143Z,11.67
2017-09-22T17:55:37.729Z,11.70
2017-09-22T17:58:05.391Z,11.70
2017-09-22T18:00:32.973Z,14.40
2017-09-22T18:03:00.723Z,13.03
2017-09-22T18:08:50.170Z,14.67
2017-09-22T18:11:17.731Z,14.60
2017-09-22T18:13:45.317Z,16.30
2017-09-22T18:16:12.933Z,15.07
2017-09-22T18:18:40.506Z,15.20
2017-09-22T18:21:08.112Z,14.13
2017-09-22T18:23:35.704Z,14.37
2017-09-22T18:26:03.291Z,12.70
2017-09-22T18:28:30.863Z,13.30
2017-09-22T18:30:58.841Z,13.83
2017-09-22T18:33:26.440Z,13.03
2017-09-22T18:35:54.029Z,12.67
2017-09-22T18:38:22.401Z,13.33
2017-09-22T18:40:50.003Z,10.80
2017-09-22T18:43:17.595Z,11.53
2017-09-22T18:45:45.186Z,10.47
2017-09-22T18:48:12.783Z,9.90
2017-09-22T18:50:40.406Z,12.03
2017-09-22T18:53:08.761Z,10.57
2017-09-22T18:55:36.566Z,11.63
2017-09-22T18:58:04.934Z,11.17
2017-09-22T19:00:32.558Z,11.93
2017-09-22T19:03:00.181Z,9.80
2017-09-22T19:05:28.512Z,9.60
2017-09-22T19:07:56.094Z,9.70
2017-09-22T19:10:23.661Z,10.20
2017-09-22T19:12:52.003Z,9.10
2017-09-22T19:15:19.572Z,11.83
2017-09-22T19:17:47.167Z,11.40
2017-09-22T19:20:15.849Z,11.37
2017-09-22T19:22:44.238Z,11.57
2017-09-22T19:25:12.600Z,11.50
2017-09-22T19:27:40.183Z,11.83
2017-09-22T19:30:08.663Z,11.70
2017-09-22T19:32:36.230Z,12.80
2017-09-22T19:35:03.878Z,11.50
2017-09-22T19:37:31.655Z,12.07
2017-09-22T19:39:59.454Z,11.37
2017-09-22T19:42:27.032Z,12.03
2017-09-22T19:44:54.875Z,11.83
2017-09-22T19:47:23.248Z,14.77
2017-09-22T19:49:50.877Z,16.53
2017-09-22T19:52:18.477Z,14.60
2017-09-22T19:54:46.807Z,14.00
2017-09-22T19:57:14.405Z,15.17
2017-09-22T19:59:42.016Z,14.40
2017-09-22T20:02:09.606Z,16.77
2017-09-22T20:04:37.221Z,16.40
2017-09-22T20:07:04.817Z,15.70
2017-09-22T20:09:32.411Z,17.70
2017-09-22T20:12:00.790Z,16.90
2017-09-22T20:14:28.364Z,16.50
2017-09-22T20:16:56.741Z,16.87
2017-09-22T20:19:24.323Z,16.90
2017-09-22T20:21:51.914Z,17.87
2017-09-22T20:24:19.699Z,18.90
2017-09-22T20:26:47.275Z,19.20
2017-09-22T20:29:14.847Z,18.30
2017-09-22T20:31:42.492Z,18.60
2017-09-22T20:34:10.088Z,17.27
2017-09-22T20:36:38.460Z,15.27
2017-09-22T20:39:06.036Z,15.07
2017-09-22T20:41:34.389Z,17.93
2017-09-22T20:44:01.971Z,18.60
2017-09-22T20:46:30.315Z,17.53
2017-09-22T20:48:57.889Z,20.00
2017-09-22T20:51:26.293Z,17.33
2017-09-22T20:53:53.870Z,16.40
2017-09-22T20:56:22.203Z,15.17
2017-09-22T20:58:49.807Z,15.10
2017-09-22T21:01:18.314Z,13.47
2017-09-22T21:03:45.890Z,13.40
2017-09-22T21:06:13.479Z,13.67
2017-09-22T21:08:41.074Z,12.30
2017-09-22T21:11:09.448Z,9.37
2017-09-22T21:13:37.799Z,10.30
2017-09-22T21:16:05.370Z,9.50
2017-09-22T21:18:33.126Z,9.33
2017-09-22T21:21:00.703Z,9.53
2017-09-22T21:23:28.291Z,9.50
2017-09-22T21:25:56.646Z,8.03
2017-09-22T21:28:24.222Z,9.60
2017-09-22T21:30:52.550Z,9.97
2017-09-22T21:33:20.152Z,9.67
2017-09-22T21:35:47.727Z,8.70
2017-09-22T21:38:15.328Z,10.23
2017-09-22T21:40:42.944Z,10.20
2017-09-22T21:43:10.725Z,10.47
2017-09-22T21:45:39.069Z,11.30
2017-09-22T21:48:06.653Z,10.40
2017-09-22T21:50:34.312Z,11.27
2017-09-22T21:53:01.914Z,10.90
2017-09-22T21:55:29.633Z,9.30
2017-09-22T21:57:57.225Z,8.40
2017-09-22T22:00:25.572Z,9.73
2017-09-22T22:02:53.171Z,8.70
2017-09-22T22:05:27.171Z,8.50
2017-09-22T22:07:55.530Z,7.63
2017-09-22T22:10:23.093Z,7.90
2017-09-22T22:12:50.710Z,10.20
2017-09-22T22:15:18.267Z,7.90
2017-09-22T22:17:45.831Z,9.47
2017-09-22T22:20:13.422Z,7.17
2017-09-22T22:22:40.998Z,6.80
2017-09-22T22:25:25.561Z,7.57
2017-09-22T22:27:53.165Z,6.30
2017-09-22T22:30:21.479Z,7.30
2017-09-22T22:32:49.183Z,8.13
2017-09-22T22:35:16.757Z,7.03
2017-09-22T22:37:45.444Z,8.20
2017-09-22T22:40:13.031Z,7.17
2017-09-22T22:42:41.383Z,6.20
2017-09-22T22:45:08.945Z,7.50
2017-09-22T22:47:36.533Z,6.90
2017-09-22T22:50:04.103Z,6.77
2017-09-22T22:52:31.655Z,6.87
2017-09-22T22:54:59.250Z,6.83
2017-09-22T22:57:26.831Z,7.00
2017-09-22T22:59:54.413Z,8.47
2017-09-22T23:02:22.774Z,7.30
2017-09-22T23:04:50.340Z,9.30
2017-09-22T23:07:18.698Z,10.90
2017-09-22T23:09:46.277Z,9.80
2017-09-22T23:12:13.881Z,10.60
2017-09-22T23:14:42.238Z,11.47
2017-09-22T23:17:10.594Z,14.37
2017-09-22T23:19:38.189Z,15.93
2017-09-22T23:22:06.534Z,16.13
2017-09-22T23:27:57.335Z,20.50
2017-09-22T23:30:24.922Z,20.30
2017-09-22T23:32:52.508Z,17.80
2017-09-22T23:35:20.103Z,19.80
2017-09-22T23:40:40.435Z,18.30
2017-09-22T23:43:08.007Z,19.93
2017-09-22T23:45:35.578Z,21.10
2017-09-22T23:48:03.176Z,19.33
2017-09-22T23:50:31.505Z,18.17
2017-09-22T23:52:59.099Z,17.20
2017-09-22T23:55:26.662Z,19.70
2017-09-22T23:57:54.243Z,17.97
